Enter your " Place, State", US Zip Code or ICAO:  
Portland, Oregon (97201)  Lat: 45.52N, Lon: 122.67W
Wx Zone: ORZ006 ICAO Used: KPDX
Current Conditions
Updated: UNKNOWN
Sun & Moon Information:
Fair
Fair
Temp: N/A
Humidity: N/A
Wind Speed: N/A
Barometer: N/A
Dewpoint: N/A
Heat Index: N/A
Wind Chill: N/A
Civil Twilight: 5:07 AM PDT Moon Phase:
Waxing Crescent Moon
Waxing Crescent Moon
Sunrise: 5:43 AM PDT
Sunset: 8:49 PM PDT
Civil Twilight: 9:24 PM PDT
Forecast for Portland, OR:
(Forecast based on TAF for )
1133 AM PDT SUN JUL 23 2017
  
MORNING AFTERNOON EVENING OVERNIGHT MORNING
Overcast Partly Cloudy Clear Clear Clear
Overcast Partly
Cloudy
Clear Clear Clear
TAF based forecast:
Dated: 1133 AM PDT SUN JUL 23 2017
Morning...Overcast with winds from the northnorthwest at 9 mph.
Afternoon...Overcast with winds from the northnorthwest at 9 mph. Turning partly cloudy with winds from the northwest at 12 mph and gusts up to 21 mph. Turning clear with winds from the northwest at 17 mph and gusts up to 29 mph.
Evening...Clear with winds from the northwest at 17 mph and gusts up to 29 mph.
Overnight...Clear with winds from the northwest at 17 mph and gusts up to 29 mph.
Morning...Clear with winds from the northnorthwest at 5 mph.
Original Encoded TAF:
Dated: 1133 AM PDT SUN JUL 23 2017
2017/07/23 18:33
TAF KPDX 231731Z 2318/2418 33008KT P6SM OVC018 
     FM231930 32010G18KT P6SM SCT025 
     FM232200 32015G25KT P6SM SKC 
     FM240500 32010KT P6SM SKC 
     FM241000 33004KT P6SM SKC